sensor_id;sensor_type;location;lat;lon;timestamp;P1;durP1;ratioP1;P2;durP2;ratioP2
66542;SDS011;53395;37.360;-122.046;2022-08-21T00:00:16;12.18;;;8.18;;
66542;SDS011;53395;37.360;-122.046;2022-08-21T00:02:47;10.10;;;7.07;;
66542;SDS011;53395;37.360;-122.046;2022-08-21T00:05:16;14.55;;;7.72;;
66542;SDS011;53395;37.360;-122.046;2022-08-21T00:07:43;13.20;;;7.05;;
66542;SDS011;53395;37.360;-122.046;2022-08-21T00:10:10;13.50;;;6.70;;
66542;SDS011;53395;37.360;-122.046;2022-08-21T00:12:37;10.52;;;6.28;;
66542;SDS011;53395;37.360;-122.046;2022-08-21T00:15:06;10.65;;;6.32;;
66542;SDS011;53395;37.360;-122.046;2022-08-21T00:17:33;9.15;;;5.68;;
66542;SDS011;53395;37.360;-122.046;2022-08-21T00:20:00;12.88;;;6.40;;
66542;SDS011;53395;37.360;-122.046;2022-08-21T00:22:27;10.20;;;6.28;;
66542;SDS011;53395;37.360;-122.046;2022-08-21T00:24:54;9.60;;;6.35;;
66542;SDS011;53395;37.360;-122.046;2022-08-21T00:27:20;9.90;;;5.05;;
66542;SDS011;53395;37.360;-122.046;2022-08-21T00:29:47;9.38;;;6.40;;
66542;SDS011;53395;37.360;-122.046;2022-08-21T00:32:18;10.38;;;5.95;;
66542;SDS011;53395;37.360;-122.046;2022-08-21T00:34:46;9.60;;;7.10;;
66542;SDS011;53395;37.360;-122.046;2022-08-21T00:37:12;10.80;;;6.18;;
66542;SDS011;53395;37.360;-122.046;2022-08-21T00:39:38;10.50;;;5.53;;
66542;SDS011;53395;37.360;-122.046;2022-08-21T00:42:05;10.80;;;6.45;;
66542;SDS011;53395;37.360;-122.046;2022-08-21T00:44:31;10.43;;;4.85;;
66542;SDS011;53395;37.360;-122.046;2022-08-21T00:46:58;9.60;;;6.45;;
66542;SDS011;53395;37.360;-122.046;2022-08-21T00:49:24;9.63;;;6.55;;
66542;SDS011;53395;37.360;-122.046;2022-08-21T00:51:51;10.13;;;5.18;;
66542;SDS011;53395;37.360;-122.046;2022-08-21T00:54:22;9.00;;;5.53;;
66542;SDS011;53395;37.360;-122.046;2022-08-21T00:56:54;8.65;;;6.40;;
66542;SDS011;53395;37.360;-122.046;2022-08-21T00:59:24;7.63;;;5.57;;
66542;SDS011;53395;37.360;-122.046;2022-08-21T01:01:52;11.98;;;6.32;;
66542;SDS011;53395;37.360;-122.046;2022-08-21T01:04:19;10.65;;;5.70;;
66542;SDS011;53395;37.360;-122.046;2022-08-21T01:06:45;7.72;;;4.90;;
66542;SDS011;53395;37.360;-122.046;2022-08-21T01:09:12;9.98;;;6.25;;
66542;SDS011;53395;37.360;-122.046;2022-08-21T01:11:39;8.25;;;6.47;;
66542;SDS011;53395;37.360;-122.046;2022-08-21T01:14:08;11.52;;;5.88;;
66542;SDS011;53395;37.360;-122.046;2022-08-21T01:16:38;8.07;;;7.28;;
66542;SDS011;53395;37.360;-122.046;2022-08-21T01:19:09;8.85;;;7.40;;
66542;SDS011;53395;37.360;-122.046;2022-08-21T01:21:36;8.82;;;5.43;;
66542;SDS011;53395;37.360;-122.046;2022-08-21T01:24:02;9.23;;;6.07;;
66542;SDS011;53395;37.360;-122.046;2022-08-21T01:26:31;8.88;;;7.05;;
66542;SDS011;53395;37.360;-122.046;2022-08-21T01:31:31;12.75;;;6.25;;
66542;SDS011;53395;37.360;-122.046;2022-08-21T01:33:58;9.75;;;6.47;;
66542;SDS011;53395;37.360;-122.046;2022-08-21T01:36:25;9.63;;;5.82;;
66542;SDS011;53395;37.360;-122.046;2022-08-21T01:38:51;10.07;;;7.22;;
66542;SDS011;53395;37.360;-122.046;2022-08-21T01:41:17;8.50;;;7.00;;
66542;SDS011;53395;37.360;-122.046;2022-08-21T01:43:44;13.43;;;7.60;;
66542;SDS011;53395;37.360;-122.046;2022-08-21T01:46:11;8.65;;;5.65;;
66542;SDS011;53395;37.360;-122.046;2022-08-21T01:48:38;10.70;;;5.60;;
66542;SDS011;53395;37.360;-122.046;2022-08-21T01:51:05;13.63;;;7.32;;
66542;SDS011;53395;37.360;-122.046;2022-08-21T01:53:32;7.55;;;5.93;;
66542;SDS011;53395;37.360;-122.046;2022-08-21T01:56:01;6.90;;;6.15;;
66542;SDS011;53395;37.360;-122.046;2022-08-21T01:58:32;8.95;;;6.88;;
66542;SDS011;53395;37.360;-122.046;2022-08-21T02:00:59;7.40;;;6.20;;
66542;SDS011;53395;37.360;-122.046;2022-08-21T02:03:27;11.75;;;6.07;;
66542;SDS011;53395;37.360;-122.046;2022-08-21T02:05:54;9.18;;;5.80;;
66542;SDS011;53395;37.360;-122.046;2022-08-21T02:08:21;8.25;;;5.63;;
66542;SDS011;53395;37.360;-122.046;2022-08-21T02:10:49;8.20;;;5.88;;
66542;SDS011;53395;37.360;-122.046;2022-08-21T02:13:16;9.60;;;6.15;;
66542;SDS011;53395;37.360;-122.046;2022-08-21T02:15:43;8.05;;;4.85;;
66542;SDS011;53395;37.360;-122.046;2022-08-21T02:18:10;10.93;;;5.55;;
66542;SDS011;53395;37.360;-122.046;2022-08-21T02:20:39;9.00;;;5.43;;
66542;SDS011;53395;37.360;-122.046;2022-08-21T02:23:09;6.78;;;5.65;;
66542;SDS011;53395;37.360;-122.046;2022-08-21T02:25:36;10.00;;;5.70;;
66542;SDS011;53395;37.360;-122.046;2022-08-21T02:28:04;12.90;;;5.05;;
66542;SDS011;53395;37.360;-122.046;2022-08-21T02:30:34;10.80;;;5.78;;
66542;SDS011;53395;37.360;-122.046;2022-08-21T02:33:04;11.43;;;4.75;;
66542;SDS011;53395;37.360;-122.046;2022-08-21T02:35:31;7.93;;;4.70;;
66542;SDS011;53395;37.360;-122.046;2022-08-21T02:37:59;9.15;;;5.53;;
66542;SDS011;53395;37.360;-122.046;2022-08-21T02:40:29;9.25;;;5.07;;
66542;SDS011;53395;37.360;-122.046;2022-08-21T02:42:58;6.85;;;4.25;;
66542;SDS011;53395;37.360;-122.046;2022-08-21T02:45:26;8.40;;;4.70;;
66542;SDS011;53395;37.360;-122.046;2022-08-21T02:47:58;8.95;;;5.10;;
66542;SDS011;53395;37.360;-122.046;2022-08-21T02:50:31;9.15;;;4.38;;
66542;SDS011;53395;37.360;-122.046;2022-08-21T02:53:02;9.25;;;4.60;;
66542;SDS011;53395;37.360;-122.046;2022-08-21T02:55:31;9.30;;;5.40;;
66542;SDS011;53395;37.360;-122.046;2022-08-21T02:57:57;10.63;;;4.63;;
66542;SDS011;53395;37.360;-122.046;2022-08-21T03:00:25;8.55;;;4.90;;
66542;SDS011;53395;37.360;-122.046;2022-08-21T03:02:53;10.57;;;4.65;;
66542;SDS011;53395;37.360;-122.046;2022-08-21T03:05:20;8.98;;;4.47;;
66542;SDS011;53395;37.360;-122.046;2022-08-21T03:07:48;8.05;;;4.43;;
66542;SDS011;53395;37.360;-122.046;2022-08-21T03:10:15;9.82;;;4.47;;
66542;SDS011;53395;37.360;-122.046;2022-08-21T03:12:42;10.15;;;4.05;;
66542;SDS011;53395;37.360;-122.046;2022-08-21T03:15:11;12.25;;;5.05;;
66542;SDS011;53395;37.360;-122.046;2022-08-21T03:17:38;9.52;;;4.22;;
66542;SDS011;53395;37.360;-122.046;2022-08-21T03:20:05;8.90;;;3.97;;
66542;SDS011;53395;37.360;-122.046;2022-08-21T03:22:33;8.38;;;4.28;;
66542;SDS011;53395;37.360;-122.046;2022-08-21T03:25:00;7.75;;;4.22;;
66542;SDS011;53395;37.360;-122.046;2022-08-21T03:27:28;13.23;;;4.53;;
66542;SDS011;53395;37.360;-122.046;2022-08-21T03:29:56;11.02;;;5.00;;
66542;SDS011;53395;37.360;-122.046;2022-08-21T03:32:23;9.48;;;4.28;;
66542;SDS011;53395;37.360;-122.046;2022-08-21T03:34:49;10.98;;;4.57;;
66542;SDS011;53395;37.360;-122.046;2022-08-21T03:37:15;9.35;;;3.70;;
66542;SDS011;53395;37.360;-122.046;2022-08-21T03:39:43;10.30;;;4.30;;
66542;SDS011;53395;37.360;-122.046;2022-08-21T03:42:10;7.65;;;3.80;;
66542;SDS011;53395;37.360;-122.046;2022-08-21T03:44:37;8.70;;;4.05;;
66542;SDS011;53395;37.360;-122.046;2022-08-21T03:47:04;8.93;;;4.75;;
66542;SDS011;53395;37.360;-122.046;2022-08-21T03:49:31;8.43;;;4.07;;
66542;SDS011;53395;37.360;-122.046;2022-08-21T03:51:58;9.13;;;4.32;;
66542;SDS011;53395;37.360;-122.046;2022-08-21T03:54:24;9.27;;;3.90;;
66542;SDS011;53395;37.360;-122.046;2022-08-21T03:56:51;6.85;;;3.63;;
66542;SDS011;53395;37.360;-122.046;2022-08-21T03:59:17;8.98;;;4.38;;
66542;SDS011;53395;37.360;-122.046;2022-08-21T04:01:58;6.95;;;4.05;;
66542;SDS011;53395;37.360;-122.046;2022-08-21T04:04:26;7.28;;;3.80;;
66542;SDS011;53395;37.360;-122.046;2022-08-21T04:06:54;8.75;;;4.30;;
66542;SDS011;53395;37.360;-122.046;2022-08-21T04:09:22;11.95;;;4.15;;
66542;SDS011;53395;37.360;-122.046;2022-08-21T04:11:48;8.18;;;4.20;;
66542;SDS011;53395;37.360;-122.046;2022-08-21T04:14:16;11.10;;;3.90;;
66542;SDS011;53395;37.360;-122.046;2022-08-21T04:16:42;8.25;;;3.90;;
66542;SDS011;53395;37.360;-122.046;2022-08-21T04:19:10;10.95;;;4.10;;
66542;SDS011;53395;37.360;-122.046;2022-08-21T04:21:41;6.95;;;3.67;;
66542;SDS011;53395;37.360;-122.046;2022-08-21T04:24:08;9.27;;;4.20;;
66542;SDS011;53395;37.360;-122.046;2022-08-21T04:26:36;7.60;;;3.72;;
66542;SDS011;53395;37.360;-122.046;2022-08-21T04:29:03;7.57;;;4.07;;
66542;SDS011;53395;37.360;-122.046;2022-08-21T04:31:32;9.68;;;3.65;;
66542;SDS011;53395;37.360;-122.046;2022-08-21T04:33:59;9.75;;;3.72;;
66542;SDS011;53395;37.360;-122.046;2022-08-21T04:36:26;9.40;;;3.45;;
66542;SDS011;53395;37.360;-122.046;2022-08-21T04:38:52;7.22;;;3.60;;
66542;SDS011;53395;37.360;-122.046;2022-08-21T04:41:18;8.73;;;3.70;;
66542;SDS011;53395;37.360;-122.046;2022-08-21T04:43:44;10.25;;;3.47;;
66542;SDS011;53395;37.360;-122.046;2022-08-21T04:46:11;6.47;;;3.70;;
66542;SDS011;53395;37.360;-122.046;2022-08-21T04:48:38;8.68;;;4.28;;
66542;SDS011;53395;37.360;-122.046;2022-08-21T04:53:40;12.05;;;3.92;;
66542;SDS011;53395;37.360;-122.046;2022-08-21T04:56:21;10.98;;;4.13;;
66542;SDS011;53395;37.360;-122.046;2022-08-21T04:59:01;10.15;;;3.63;;
66542;SDS011;53395;37.360;-122.046;2022-08-21T05:01:32;12.65;;;4.50;;
66542;SDS011;53395;37.360;-122.046;2022-08-21T05:04:02;13.57;;;4.00;;
66542;SDS011;53395;37.360;-122.046;2022-08-21T05:06:30;11.90;;;3.75;;
66542;SDS011;53395;37.360;-122.046;2022-08-21T05:09:00;10.52;;;4.22;;
66542;SDS011;53395;37.360;-122.046;2022-08-21T05:11:27;7.05;;;3.88;;
66542;SDS011;53395;37.360;-122.046;2022-08-21T05:13:55;11.05;;;4.03;;
66542;SDS011;53395;37.360;-122.046;2022-08-21T05:16:21;9.07;;;4.18;;
66542;SDS011;53395;37.360;-122.046;2022-08-21T05:21:13;9.80;;;3.75;;
66542;SDS011;53395;37.360;-122.046;2022-08-21T05:26:05;12.57;;;4.22;;
66542;SDS011;53395;37.360;-122.046;2022-08-21T05:28:32;10.88;;;4.10;;
66542;SDS011;53395;37.360;-122.046;2022-08-21T05:30:58;13.13;;;3.90;;
66542;SDS011;53395;37.360;-122.046;2022-08-21T05:35:51;9.50;;;3.88;;
66542;SDS011;53395;37.360;-122.046;2022-08-21T05:38:21;15.15;;;4.78;;
66542;SDS011;53395;37.360;-122.046;2022-08-21T05:40:51;10.10;;;4.25;;
66542;SDS011;53395;37.360;-122.046;2022-08-21T05:43:17;13.52;;;5.35;;
66542;SDS011;53395;37.360;-122.046;2022-08-21T05:45:43;13.85;;;4.40;;
66542;SDS011;53395;37.360;-122.046;2022-08-21T05:48:11;13.25;;;4.05;;
66542;SDS011;53395;37.360;-122.046;2022-08-21T05:50:41;9.88;;;4.53;;
66542;SDS011;53395;37.360;-122.046;2022-08-21T05:53:09;10.45;;;3.83;;
66542;SDS011;53395;37.360;-122.046;2022-08-21T05:55:35;10.98;;;4.47;;
66542;SDS011;53395;37.360;-122.046;2022-08-21T05:58:03;15.98;;;4.78;;
66542;SDS011;53395;37.360;-122.046;2022-08-21T06:00:30;10.30;;;4.38;;
66542;SDS011;53395;37.360;-122.046;2022-08-21T06:02:57;13.48;;;4.55;;
66542;SDS011;53395;37.360;-122.046;2022-08-21T06:05:23;14.82;;;4.55;;
66542;SDS011;53395;37.360;-122.046;2022-08-21T06:07:50;10.57;;;3.92;;
66542;SDS011;53395;37.360;-122.046;2022-08-21T06:10:16;11.98;;;4.28;;
66542;SDS011;53395;37.360;-122.046;2022-08-21T06:12:42;8.90;;;4.10;;
66542;SDS011;53395;37.360;-122.046;2022-08-21T06:15:09;13.65;;;4.60;;
66542;SDS011;53395;37.360;-122.046;2022-08-21T06:17:36;9.68;;;4.25;;
66542;SDS011;53395;37.360;-122.046;2022-08-21T06:20:03;11.52;;;3.70;;
66542;SDS011;53395;37.360;-122.046;2022-08-21T06:22:30;14.75;;;4.90;;
66542;SDS011;53395;37.360;-122.046;2022-08-21T06:24:56;12.10;;;4.28;;
66542;SDS011;53395;37.360;-122.046;2022-08-21T06:27:22;15.35;;;5.15;;
66542;SDS011;53395;37.360;-122.046;2022-08-21T06:32:14;19.08;;;4.20;;
66542;SDS011;53395;37.360;-122.046;2022-08-21T06:37:07;11.27;;;3.67;;
66542;SDS011;53395;37.360;-122.046;2022-08-21T06:39:34;11.68;;;5.13;;
66542;SDS011;53395;37.360;-122.046;2022-08-21T06:42:00;14.27;;;4.68;;
66542;SDS011;53395;37.360;-122.046;2022-08-21T06:44:27;13.32;;;4.75;;
66542;SDS011;53395;37.360;-122.046;2022-08-21T06:46:54;16.10;;;4.78;;
66542;SDS011;53395;37.360;-122.046;2022-08-21T06:51:46;18.05;;;5.13;;
66542;SDS011;53395;37.360;-122.046;2022-08-21T06:54:13;11.88;;;4.45;;
66542;SDS011;53395;37.360;-122.046;2022-08-21T06:59:05;18.27;;;4.07;;
66542;SDS011;53395;37.360;-122.046;2022-08-21T07:01:32;12.30;;;4.57;;
66542;SDS011;53395;37.360;-122.046;2022-08-21T07:06:24;16.73;;;4.65;;
66542;SDS011;53395;37.360;-122.046;2022-08-21T07:08:50;11.23;;;3.97;;
66542;SDS011;53395;37.360;-122.046;2022-08-21T07:11:18;13.88;;;3.75;;
66542;SDS011;53395;37.360;-122.046;2022-08-21T07:13:46;13.25;;;4.20;;
66542;SDS011;53395;37.360;-122.046;2022-08-21T07:16:12;16.20;;;4.80;;
66542;SDS011;53395;37.360;-122.046;2022-08-21T07:18:38;19.30;;;5.20;;
66542;SDS011;53395;37.360;-122.046;2022-08-21T07:21:05;14.57;;;4.95;;
66542;SDS011;53395;37.360;-122.046;2022-08-21T07:23:42;15.02;;;5.28;;
66542;SDS011;53395;37.360;-122.046;2022-08-21T07:26:12;10.65;;;4.10;;
66542;SDS011;53395;37.360;-122.046;2022-08-21T07:28:39;12.55;;;3.72;;
66542;SDS011;53395;37.360;-122.046;2022-08-21T07:31:06;12.00;;;4.40;;
66542;SDS011;53395;37.360;-122.046;2022-08-21T07:33:35;17.13;;;4.13;;
66542;SDS011;53395;37.360;-122.046;2022-08-21T07:36:01;14.55;;;4.93;;
66542;SDS011;53395;37.360;-122.046;2022-08-21T07:38:28;14.48;;;4.68;;
66542;SDS011;53395;37.360;-122.046;2022-08-21T07:40:55;10.70;;;4.45;;
66542;SDS011;53395;37.360;-122.046;2022-08-21T07:43:24;11.02;;;4.07;;
66542;SDS011;53395;37.360;-122.046;2022-08-21T07:45:51;14.82;;;4.00;;
66542;SDS011;53395;37.360;-122.046;2022-08-21T07:48:19;18.50;;;4.75;;
66542;SDS011;53395;37.360;-122.046;2022-08-21T07:50:46;12.70;;;4.72;;
66542;SDS011;53395;37.360;-122.046;2022-08-21T07:53:13;13.77;;;4.35;;
66542;SDS011;53395;37.360;-122.046;2022-08-21T07:55:40;13.25;;;4.65;;
66542;SDS011;53395;37.360;-122.046;2022-08-21T08:00:32;12.77;;;4.15;;
66542;SDS011;53395;37.360;-122.046;2022-08-21T08:02:58;15.50;;;4.20;;
66542;SDS011;53395;37.360;-122.046;2022-08-21T08:07:52;11.73;;;3.88;;
66542;SDS011;53395;37.360;-122.046;2022-08-21T08:10:19;13.55;;;4.43;;
66542;SDS011;53395;37.360;-122.046;2022-08-21T08:12:46;15.70;;;4.00;;
66542;SDS011;53395;37.360;-122.046;2022-08-21T08:15:17;15.15;;;4.25;;
66542;SDS011;53395;37.360;-122.046;2022-08-21T08:17:45;13.20;;;4.43;;
66542;SDS011;53395;37.360;-122.046;2022-08-21T08:20:13;11.18;;;3.70;;
66542;SDS011;53395;37.360;-122.046;2022-08-21T08:22:41;10.63;;;4.70;;
66542;SDS011;53395;37.360;-122.046;2022-08-21T08:25:09;9.95;;;3.80;;
66542;SDS011;53395;37.360;-122.046;2022-08-21T08:27:37;10.70;;;3.97;;
66542;SDS011;53395;37.360;-122.046;2022-08-21T08:30:04;14.15;;;4.60;;
66542;SDS011;53395;37.360;-122.046;2022-08-21T08:32:33;11.85;;;4.05;;
66542;SDS011;53395;37.360;-122.046;2022-08-21T08:35:00;15.40;;;4.57;;
66542;SDS011;53395;37.360;-122.046;2022-08-21T08:37:27;15.40;;;4.53;;
66542;SDS011;53395;37.360;-122.046;2022-08-21T08:42:27;12.70;;;4.55;;
66542;SDS011;53395;37.360;-122.046;2022-08-21T08:44:57;14.40;;;3.92;;
66542;SDS011;53395;37.360;-122.046;2022-08-21T08:47:37;12.63;;;4.28;;
66542;SDS011;53395;37.360;-122.046;2022-08-21T08:50:15;14.05;;;4.57;;
66542;SDS011;53395;37.360;-122.046;2022-08-21T08:52:45;13.45;;;4.13;;
66542;SDS011;53395;37.360;-122.046;2022-08-21T08:55:21;13.45;;;4.55;;
66542;SDS011;53395;37.360;-122.046;2022-08-21T08:57:51;10.30;;;3.88;;
66542;SDS011;53395;37.360;-122.046;2022-08-21T09:00:19;10.88;;;4.22;;
66542;SDS011;53395;37.360;-122.046;2022-08-21T09:02:47;11.68;;;4.13;;
66542;SDS011;53395;37.360;-122.046;2022-08-21T09:05:24;14.15;;;4.22;;
66542;SDS011;53395;37.360;-122.046;2022-08-21T09:27:28;9.52;;;3.92;;
66542;SDS011;53395;37.360;-122.046;2022-08-21T09:29:56;9.40;;;4.35;;
66542;SDS011;53395;37.360;-122.046;2022-08-21T09:32:25;10.55;;;3.92;;
66542;SDS011;53395;37.360;-122.046;2022-08-21T09:34:58;11.73;;;4.35;;
66542;SDS011;53395;37.360;-122.046;2022-08-21T09:37:26;11.15;;;3.95;;
66542;SDS011;53395;37.360;-122.046;2022-08-21T09:39:55;12.10;;;3.97;;
66542;SDS011;53395;37.360;-122.046;2022-08-21T09:42:29;8.77;;;4.28;;
66542;SDS011;53395;37.360;-122.046;2022-08-21T09:45:17;7.40;;;3.13;;
66542;SDS011;53395;37.360;-122.046;2022-08-21T09:47:44;11.13;;;4.10;;
66542;SDS011;53395;37.360;-122.046;2022-08-21T09:50:15;13.23;;;3.80;;
66542;SDS011;53395;37.360;-122.046;2022-08-21T09:52:52;8.68;;;3.80;;
66542;SDS011;53395;37.360;-122.046;2022-08-21T09:55:39;11.10;;;3.72;;
66542;SDS011;53395;37.360;-122.046;2022-08-21T09:58:34;10.13;;;3.75;;
66542;SDS011;53395;37.360;-122.046;2022-08-21T10:01:03;9.38;;;3.90;;
66542;SDS011;53395;37.360;-122.046;2022-08-21T10:03:31;9.15;;;4.40;;
66542;SDS011;53395;37.360;-122.046;2022-08-21T10:05:59;10.70;;;4.15;;
66542;SDS011;53395;37.360;-122.046;2022-08-21T10:08:31;10.98;;;4.00;;
66542;SDS011;53395;37.360;-122.046;2022-08-21T10:11:16;11.88;;;4.45;;
66542;SDS011;53395;37.360;-122.046;2022-08-21T10:19:39;10.95;;;3.63;;
66542;SDS011;53395;37.360;-122.046;2022-08-21T10:22:47;10.23;;;4.25;;
66542;SDS011;53395;37.360;-122.046;2022-08-21T10:25:42;8.88;;;4.35;;
66542;SDS011;53395;37.360;-122.046;2022-08-21T10:28:27;8.05;;;3.45;;
66542;SDS011;53395;37.360;-122.046;2022-08-21T10:31:18;9.18;;;3.58;;
66542;SDS011;53395;37.360;-122.046;2022-08-21T10:37:14;8.80;;;4.03;;
66542;SDS011;53395;37.360;-122.046;2022-08-21T10:39:30;9.95;;;3.58;;
66542;SDS011;53395;37.360;-122.046;2022-08-21T10:42:04;10.13;;;4.00;;
66542;SDS011;53395;37.360;-122.046;2022-08-21T10:44:47;12.15;;;4.10;;
66542;SDS011;53395;37.360;-122.046;2022-08-21T10:47:32;10.70;;;4.25;;
66542;SDS011;53395;37.360;-122.046;2022-08-21T10:55:22;10.48;;;4.10;;
66542;SDS011;53395;37.360;-122.046;2022-08-21T10:58:10;12.38;;;4.35;;
66542;SDS011;53395;37.360;-122.046;2022-08-21T11:00:47;11.90;;;4.45;;
66542;SDS011;53395;37.360;-122.046;2022-08-21T11:03:17;10.27;;;4.32;;
66542;SDS011;53395;37.360;-122.046;2022-08-21T11:06:18;9.52;;;3.53;;
66542;SDS011;53395;37.360;-122.046;2022-08-21T11:11:36;10.73;;;4.47;;
66542;SDS011;53395;37.360;-122.046;2022-08-21T11:17:11;9.45;;;3.35;;
66542;SDS011;53395;37.360;-122.046;2022-08-21T11:19:48;11.77;;;4.15;;
66542;SDS011;53395;37.360;-122.046;2022-08-21T11:22:31;10.88;;;4.25;;
66542;SDS011;53395;37.360;-122.046;2022-08-21T11:25:26;8.60;;;3.92;;
66542;SDS011;53395;37.360;-122.046;2022-08-21T11:27:54;10.05;;;4.15;;
66542;SDS011;53395;37.360;-122.046;2022-08-21T11:30:32;7.93;;;4.25;;
66542;SDS011;53395;37.360;-122.046;2022-08-21T11:33:41;11.60;;;4.47;;
66542;SDS011;53395;37.360;-122.046;2022-08-21T11:36:21;8.10;;;3.78;;
66542;SDS011;53395;37.360;-122.046;2022-08-21T11:39:21;12.23;;;4.47;;
66542;SDS011;53395;37.360;-122.046;2022-08-21T11:41:54;13.13;;;4.45;;
66542;SDS011;53395;37.360;-122.046;2022-08-21T11:44:32;10.27;;;4.32;;
66542;SDS011;53395;37.360;-122.046;2022-08-21T11:47:22;12.30;;;3.90;;
66542;SDS011;53395;37.360;-122.046;2022-08-21T11:52:42;10.60;;;4.00;;
66542;SDS011;53395;37.360;-122.046;2022-08-21T11:55:15;10.23;;;4.30;;
66542;SDS011;53395;37.360;-122.046;2022-08-21T11:57:54;9.07;;;4.55;;
66542;SDS011;53395;37.360;-122.046;2022-08-21T12:03:55;13.57;;;4.47;;
66542;SDS011;53395;37.360;-122.046;2022-08-21T12:06:34;13.02;;;3.70;;
66542;SDS011;53395;37.360;-122.046;2022-08-21T12:09:04;8.10;;;3.95;;
66542;SDS011;53395;37.360;-122.046;2022-08-21T12:11:45;10.88;;;4.13;;
66542;SDS011;53395;37.360;-122.046;2022-08-21T12:14:14;12.27;;;3.97;;
66542;SDS011;53395;37.360;-122.046;2022-08-21T12:16:44;13.68;;;4.50;;
66542;SDS011;53395;37.360;-122.046;2022-08-21T12:19:28;11.18;;;4.82;;
66542;SDS011;53395;37.360;-122.046;2022-08-21T12:22:07;11.07;;;4.05;;
66542;SDS011;53395;37.360;-122.046;2022-08-21T12:24:44;10.82;;;3.90;;
66542;SDS011;53395;37.360;-122.046;2022-08-21T12:27:18;12.82;;;4.13;;
66542;SDS011;53395;37.360;-122.046;2022-08-21T12:29:52;14.63;;;4.10;;
66542;SDS011;53395;37.360;-122.046;2022-08-21T12:32:23;9.88;;;4.43;;
66542;SDS011;53395;37.360;-122.046;2022-08-21T12:37:38;11.88;;;4.63;;
66542;SDS011;53395;37.360;-122.046;2022-08-21T12:40:18;12.95;;;4.35;;
66542;SDS011;53395;37.360;-122.046;2022-08-21T12:42:49;15.38;;;4.80;;
66542;SDS011;53395;37.360;-122.046;2022-08-21T12:48:17;14.30;;;4.78;;
66542;SDS011;53395;37.360;-122.046;2022-08-21T12:51:15;9.13;;;4.35;;
66542;SDS011;53395;37.360;-122.046;2022-08-21T12:53:48;8.95;;;4.00;;
66542;SDS011;53395;37.360;-122.046;2022-08-21T12:56:17;13.18;;;4.53;;
66542;SDS011;53395;37.360;-122.046;2022-08-21T12:58:47;10.05;;;4.32;;
66542;SDS011;53395;37.360;-122.046;2022-08-21T13:01:21;7.82;;;3.70;;
66542;SDS011;53395;37.360;-122.046;2022-08-21T13:03:55;8.10;;;3.88;;
66542;SDS011;53395;37.360;-122.046;2022-08-21T13:06:25;12.27;;;3.80;;
66542;SDS011;53395;37.360;-122.046;2022-08-21T13:08:58;10.80;;;4.65;;
66542;SDS011;53395;37.360;-122.046;2022-08-21T13:11:31;9.20;;;3.95;;
66542;SDS011;53395;37.360;-122.046;2022-08-21T13:13:58;9.75;;;4.15;;
66542;SDS011;53395;37.360;-122.046;2022-08-21T13:16:28;7.03;;;3.88;;
66542;SDS011;53395;37.360;-122.046;2022-08-21T13:19:00;8.85;;;3.95;;
66542;SDS011;53395;37.360;-122.046;2022-08-21T13:21:31;11.38;;;4.20;;
66542;SDS011;53395;37.360;-122.046;2022-08-21T13:24:46;10.35;;;4.20;;
66542;SDS011;53395;37.360;-122.046;2022-08-21T13:26:55;9.40;;;4.05;;
66542;SDS011;53395;37.360;-122.046;2022-08-21T13:29:23;11.70;;;4.45;;
66542;SDS011;53395;37.360;-122.046;2022-08-21T13:32:04;9.15;;;4.28;;
66542;SDS011;53395;37.360;-122.046;2022-08-21T13:34:36;7.70;;;4.32;;
66542;SDS011;53395;37.360;-122.046;2022-08-21T13:37:04;7.47;;;4.65;;
66542;SDS011;53395;37.360;-122.046;2022-08-21T13:39:33;9.45;;;4.18;;
66542;SDS011;53395;37.360;-122.046;2022-08-21T13:42:01;10.27;;;4.30;;
66542;SDS011;53395;37.360;-122.046;2022-08-21T13:46:57;10.05;;;4.35;;
66542;SDS011;53395;37.360;-122.046;2022-08-21T13:49:31;11.68;;;4.40;;
66542;SDS011;53395;37.360;-122.046;2022-08-21T13:52:02;10.35;;;4.35;;
66542;SDS011;53395;37.360;-122.046;2022-08-21T13:54:36;8.52;;;4.03;;
66542;SDS011;53395;37.360;-122.046;2022-08-21T13:57:15;7.75;;;3.80;;
66542;SDS011;53395;37.360;-122.046;2022-08-21T13:59:49;7.35;;;4.35;;
66542;SDS011;53395;37.360;-122.046;2022-08-21T14:02:19;10.00;;;4.63;;
66542;SDS011;53395;37.360;-122.046;2022-08-21T14:04:51;8.68;;;4.13;;
66542;SDS011;53395;37.360;-122.046;2022-08-21T14:07:20;9.52;;;4.40;;
66542;SDS011;53395;37.360;-122.046;2022-08-21T14:10:00;10.05;;;4.93;;
66542;SDS011;53395;37.360;-122.046;2022-08-21T14:13:03;7.57;;;4.50;;
66542;SDS011;53395;37.360;-122.046;2022-08-21T14:15:32;7.45;;;4.25;;
66542;SDS011;53395;37.360;-122.046;2022-08-21T14:21:05;7.13;;;3.95;;
66542;SDS011;53395;37.360;-122.046;2022-08-21T14:23:33;7.38;;;3.92;;
66542;SDS011;53395;37.360;-122.046;2022-08-21T14:26:00;7.60;;;4.10;;
66542;SDS011;53395;37.360;-122.046;2022-08-21T14:28:30;7.65;;;4.15;;
66542;SDS011;53395;37.360;-122.046;2022-08-21T14:31:11;10.10;;;4.70;;
66542;SDS011;53395;37.360;-122.046;2022-08-21T14:33:42;11.77;;;4.10;;
66542;SDS011;53395;37.360;-122.046;2022-08-21T14:36:09;9.30;;;4.40;;
66542;SDS011;53395;37.360;-122.046;2022-08-21T14:38:36;8.38;;;4.30;;
66542;SDS011;53395;37.360;-122.046;2022-08-21T14:41:14;8.52;;;4.22;;
66542;SDS011;53395;37.360;-122.046;2022-08-21T14:43:43;8.10;;;3.75;;
66542;SDS011;53395;37.360;-122.046;2022-08-21T14:46:11;7.82;;;4.22;;
66542;SDS011;53395;37.360;-122.046;2022-08-21T14:48:42;9.43;;;4.70;;
66542;SDS011;53395;37.360;-122.046;2022-08-21T14:51:08;9.70;;;4.60;;
66542;SDS011;53395;37.360;-122.046;2022-08-21T14:53:35;9.82;;;4.97;;
66542;SDS011;53395;37.360;-122.046;2022-08-21T14:58:34;10.95;;;5.50;;
66542;SDS011;53395;37.360;-122.046;2022-08-21T15:01:02;15.20;;;5.53;;
66542;SDS011;53395;37.360;-122.046;2022-08-21T15:03:31;15.13;;;5.70;;
66542;SDS011;53395;37.360;-122.046;2022-08-21T15:05:58;14.10;;;5.55;;
66542;SDS011;53395;37.360;-122.046;2022-08-21T15:08:25;13.77;;;5.90;;
66542;SDS011;53395;37.360;-122.046;2022-08-21T15:10:52;11.88;;;4.93;;
66542;SDS011;53395;37.360;-122.046;2022-08-21T15:13:19;11.65;;;5.38;;
66542;SDS011;53395;37.360;-122.046;2022-08-21T15:15:47;10.77;;;5.20;;
66542;SDS011;53395;37.360;-122.046;2022-08-21T15:18:16;13.32;;;5.53;;
66542;SDS011;53395;37.360;-122.046;2022-08-21T15:20:42;12.07;;;5.13;;
66542;SDS011;53395;37.360;-122.046;2022-08-21T15:23:09;12.02;;;5.53;;
66542;SDS011;53395;37.360;-122.046;2022-08-21T15:28:01;10.65;;;5.32;;
66542;SDS011;53395;37.360;-122.046;2022-08-21T15:30:29;15.15;;;5.75;;
66542;SDS011;53395;37.360;-122.046;2022-08-21T15:32:56;13.82;;;5.95;;
66542;SDS011;53395;37.360;-122.046;2022-08-21T15:35:23;12.93;;;5.60;;
66542;SDS011;53395;37.360;-122.046;2022-08-21T15:37:49;14.65;;;6.03;;
66542;SDS011;53395;37.360;-122.046;2022-08-21T15:40:15;13.55;;;5.82;;
66542;SDS011;53395;37.360;-122.046;2022-08-21T15:42:42;11.73;;;5.93;;
66542;SDS011;53395;37.360;-122.046;2022-08-21T15:45:09;13.98;;;5.53;;
66542;SDS011;53395;37.360;-122.046;2022-08-21T15:47:37;11.02;;;5.40;;
66542;SDS011;53395;37.360;-122.046;2022-08-21T15:50:07;12.75;;;5.50;;
66542;SDS011;53395;37.360;-122.046;2022-08-21T15:52:35;10.00;;;5.13;;